sensor_id;sensor_type;location;lat;lon;timestamp;temperature;humidity
23445;DHT22;11895;48.738;9.320;2022-10-03T13:03:16;27.60;98.20
23445;DHT22;11895;48.738;9.320;2022-10-03T13:06:06;29.70;85.90
23445;DHT22;11895;48.738;9.320;2022-10-03T13:09:15;29.70;84.90
23445;DHT22;11895;48.738;9.320;2022-10-03T13:12:09;30.60;83.00
23445;DHT22;11895;48.738;9.320;2022-10-03T13:24:26;32.80;68.60
23445;DHT22;11895;48.738;9.320;2022-10-03T13:30:39;33.60;64.20
23445;DHT22;11895;48.738;9.320;2022-10-03T13:33:21;33.70;62.00
23445;DHT22;11895;48.738;9.320;2022-10-03T13:36:00;33.50;61.60
23445;DHT22;11895;48.738;9.320;2022-10-03T13:43:57;30.60;64.10
23445;DHT22;11895;48.738;9.320;2022-10-03T13:52:44;26.60;72.80
23445;DHT22;11895;48.738;9.320;2022-10-03T14:15:26;25.80;72.90
23445;DHT22;11895;48.738;9.320;2022-10-03T14:18:17;25.50;74.00
23445;DHT22;11895;48.738;9.320;2022-10-03T14:26:56;28.80;68.70
23445;DHT22;11895;48.738;9.320;2022-10-03T14:35:29;31.00;61.80
23445;DHT22;11895;48.738;9.320;2022-10-03T14:38:23;31.10;62.10
23445;DHT22;11895;48.738;9.320;2022-10-03T14:41:48;31.60;63.20
23445;DHT22;11895;48.738;9.320;2022-10-03T14:44:36;32.50;60.80
23445;DHT22;11895;48.738;9.320;2022-10-03T14:47:09;32.80;57.70
23445;DHT22;11895;48.738;9.320;2022-10-03T14:49:39;33.20;58.70
23445;DHT22;11895;48.738;9.320;2022-10-03T14:52:33;33.50;58.30
23445;DHT22;11895;48.738;9.320;2022-10-03T14:58:05;34.70;56.50
23445;DHT22;11895;48.738;9.320;2022-10-03T15:00:45;35.10;54.30
23445;DHT22;11895;48.738;9.320;2022-10-03T15:03:26;35.40;54.30
23445;DHT22;11895;48.738;9.320;2022-10-03T15:06:00;35.20;52.80
23445;DHT22;11895;48.738;9.320;2022-10-03T15:08:29;35.10;53.40
23445;DHT22;11895;48.738;9.320;2022-10-03T15:11:05;35.10;53.20
23445;DHT22;11895;48.738;9.320;2022-10-03T15:13:34;35.30;53.90
23445;DHT22;11895;48.738;9.320;2022-10-03T15:16:08;35.40;51.30
23445;DHT22;11895;48.738;9.320;2022-10-03T15:18:49;35.20;50.80
23445;DHT22;11895;48.738;9.320;2022-10-03T15:21:24;34.70;52.00
23445;DHT22;11895;48.738;9.320;2022-10-03T15:23:55;34.40;51.60
23445;DHT22;11895;48.738;9.320;2022-10-03T15:26:28;33.10;52.20
23445;DHT22;11895;48.738;9.320;2022-10-03T15:29:02;31.70;56.80
23445;DHT22;11895;48.738;9.320;2022-10-03T15:31:56;31.50;56.90
23445;DHT22;11895;48.738;9.320;2022-10-03T15:34:32;31.90;57.90
23445;DHT22;11895;48.738;9.320;2022-10-03T15:37:12;32.20;56.70
23445;DHT22;11895;48.738;9.320;2022-10-03T15:39:44;32.60;55.40
23445;DHT22;11895;48.738;9.320;2022-10-03T15:47:21;32.70;55.90
23445;DHT22;11895;48.738;9.320;2022-10-03T15:52:53;32.40;56.30
23445;DHT22;11895;48.738;9.320;2022-10-03T15:55:43;32.30;56.40
23445;DHT22;11895;48.738;9.320;2022-10-03T15:58:29;31.80;56.10
23445;DHT22;11895;48.738;9.320;2022-10-03T16:01:04;31.60;56.40
23445;DHT22;11895;48.738;9.320;2022-10-03T16:03:44;31.00;56.60
23445;DHT22;11895;48.738;9.320;2022-10-03T16:06:32;30.70;58.80
23445;DHT22;11895;48.738;9.320;2022-10-03T16:09:22;30.20;57.90
23445;DHT22;11895;48.738;9.320;2022-10-03T16:21:31;27.80;62.40
23445;DHT22;11895;48.738;9.320;2022-10-03T16:27:13;26.10;66.10
23445;DHT22;11895;48.738;9.320;2022-10-03T16:30:09;25.60;67.80
23445;DHT22;11895;48.738;9.320;2022-10-03T16:33:10;25.10;68.80
23445;DHT22;11895;48.738;9.320;2022-10-03T16:35:51;24.60;69.50
23445;DHT22;11895;48.738;9.320;2022-10-03T16:38:24;24.00;72.20
23445;DHT22;11895;48.738;9.320;2022-10-03T16:40:56;23.30;74.10
23445;DHT22;11895;48.738;9.320;2022-10-03T16:43:29;22.50;76.90
23445;DHT22;11895;48.738;9.320;2022-10-03T16:46:08;21.80;78.50
23445;DHT22;11895;48.738;9.320;2022-10-03T16:48:45;21.10;81.90
23445;DHT22;11895;48.738;9.320;2022-10-03T16:51:38;20.50;81.90
23445;DHT22;11895;48.738;9.320;2022-10-03T16:54:10;20.00;84.90
23445;DHT22;11895;48.738;9.320;2022-10-03T16:56:44;19.50;86.50
23445;DHT22;11895;48.738;9.320;2022-10-03T16:59:18;19.10;87.60
23445;DHT22;11895;48.738;9.320;2022-10-03T17:04:35;18.40;90.20
23445;DHT22;11895;48.738;9.320;2022-10-03T17:07:22;18.00;91.20
23445;DHT22;11895;48.738;9.320;2022-10-03T17:09:56;17.80;91.70
23445;DHT22;11895;48.738;9.320;2022-10-03T17:12:41;17.40;92.50
23445;DHT22;11895;48.738;9.320;2022-10-03T17:15:14;17.20;93.00
23445;DHT22;11895;48.738;9.320;2022-10-03T17:23:39;16.40;95.40
23445;DHT22;11895;48.738;9.320;2022-10-03T17:26:27;16.20;95.90
23445;DHT22;11895;48.738;9.320;2022-10-03T17:29:16;16.10;96.30
23445;DHT22;11895;48.738;9.320;2022-10-03T17:35:36;15.60;97.60
23445;DHT22;11895;48.738;9.320;2022-10-03T17:46:45;14.80;99.90
23445;DHT22;11895;48.738;9.320;2022-10-03T17:50:11;14.60;99.90
23445;DHT22;11895;48.738;9.320;2022-10-03T17:52:43;14.50;99.90
23445;DHT22;11895;48.738;9.320;2022-10-03T17:55:16;14.30;99.90
23445;DHT22;11895;48.738;9.320;2022-10-03T17:57:49;14.20;99.90
23445;DHT22;11895;48.738;9.320;2022-10-03T18:00:22;14.10;99.90
23445;DHT22;11895;48.738;9.320;2022-10-03T18:06:01;14.00;99.90
23445;DHT22;11895;48.738;9.320;2022-10-03T18:09:08;13.90;99.90
23445;DHT22;11895;48.738;9.320;2022-10-03T18:11:42;13.80;99.90
23445;DHT22;11895;48.738;9.320;2022-10-03T18:17:15;13.70;99.90
23445;DHT22;11895;48.738;9.320;2022-10-03T18:20:25;13.50;99.90
23445;DHT22;11895;48.738;9.320;2022-10-03T18:22:58;13.60;99.90
23445;DHT22;11895;48.738;9.320;2022-10-03T18:31:55;12.90;99.90
23445;DHT22;11895;48.738;9.320;2022-10-03T18:34:33;12.80;99.90
23445;DHT22;11895;48.738;9.320;2022-10-03T18:42:53;12.40;99.90
23445;DHT22;11895;48.738;9.320;2022-10-03T18:45:41;12.30;99.90
23445;DHT22;11895;48.738;9.320;2022-10-03T18:50:58;12.10;99.90
23445;DHT22;11895;48.738;9.320;2022-10-03T18:53:40;12.00;99.90
23445;DHT22;11895;48.738;9.320;2022-10-03T18:56:44;11.90;99.90
23445;DHT22;11895;48.738;9.320;2022-10-03T19:00:05;11.90;99.90
23445;DHT22;11895;48.738;9.320;2022-10-03T19:08:55;11.60;99.90
23445;DHT22;11895;48.738;9.320;2022-10-03T19:20:40;11.30;99.90
23445;DHT22;11895;48.738;9.320;2022-10-03T19:23:11;11.20;99.90
23445;DHT22;11895;48.738;9.320;2022-10-03T19:25:59;11.10;99.90
23445;DHT22;11895;48.738;9.320;2022-10-03T19:28:35;11.00;99.90
23445;DHT22;11895;48.738;9.320;2022-10-03T19:38:05;10.70;99.90
23445;DHT22;11895;48.738;9.320;2022-10-03T19:51:07;10.60;99.90
23445;DHT22;11895;48.738;9.320;2022-10-03T19:53:51;10.60;99.90
23445;DHT22;11895;48.738;9.320;2022-10-03T19:59:50;10.30;99.90
23445;DHT22;11895;48.738;9.320;2022-10-03T20:02:22;10.30;99.90
23445;DHT22;11895;48.738;9.320;2022-10-03T20:04:52;10.20;99.90
23445;DHT22;11895;48.738;9.320;2022-10-03T20:15:23;9.90;99.90
23445;DHT22;11895;48.738;9.320;2022-10-03T20:20:26;9.80;99.90
23445;DHT22;11895;48.738;9.320;2022-10-03T20:23:00;9.80;99.90
23445;DHT22;11895;48.738;9.320;2022-10-03T20:25:34;9.80;99.90
23445;DHT22;11895;48.738;9.320;2022-10-03T20:28:07;9.80;99.90
23445;DHT22;11895;48.738;9.320;2022-10-03T20:30:47;9.70;99.90
23445;DHT22;11895;48.738;9.320;2022-10-03T20:33:24;9.70;99.90
23445;DHT22;11895;48.738;9.320;2022-10-03T20:38:59;9.70;99.90
23445;DHT22;11895;48.738;9.320;2022-10-03T20:50:17;9.40;99.90
23445;DHT22;11895;48.738;9.320;2022-10-03T20:58:30;9.30;99.90
23445;DHT22;11895;48.738;9.320;2022-10-03T21:12:18;9.10;99.90
23445;DHT22;11895;48.738;9.320;2022-10-03T21:14:55;9.00;99.90
23445;DHT22;11895;48.738;9.320;2022-10-03T21:17:29;8.90;99.90
23445;DHT22;11895;48.738;9.320;2022-10-03T21:19:58;8.90;99.90
23445;DHT22;11895;48.738;9.320;2022-10-03T21:22:32;9.00;99.90
23445;DHT22;11895;48.738;9.320;2022-10-03T21:25:02;9.00;99.90
23445;DHT22;11895;48.738;9.320;2022-10-03T21:27:49;8.90;99.90
23445;DHT22;11895;48.738;9.320;2022-10-03T21:30:22;8.90;99.90
23445;DHT22;11895;48.738;9.320;2022-10-03T21:40:26;8.70;99.90
23445;DHT22;11895;48.738;9.320;2022-10-03T21:46:44;8.70;99.90
23445;DHT22;11895;48.738;9.320;2022-10-03T21:49:55;8.60;99.90
23445;DHT22;11895;48.738;9.320;2022-10-03T21:55:52;8.50;99.90
23445;DHT22;11895;48.738;9.320;2022-10-03T22:09:01;8.50;99.90
23445;DHT22;11895;48.738;9.320;2022-10-03T22:37:42;8.10;99.90
23445;DHT22;11895;48.738;9.320;2022-10-03T22:40:10;8.10;99.90
23445;DHT22;11895;48.738;9.320;2022-10-03T22:42:39;8.20;99.90
23445;DHT22;11895;48.738;9.320;2022-10-03T22:45:14;8.20;99.90
23445;DHT22;11895;48.738;9.320;2022-10-03T22:47:46;8.00;99.90
23445;DHT22;11895;48.738;9.320;2022-10-03T22:50:19;8.00;99.90
23445;DHT22;11895;48.738;9.320;2022-10-03T22:52:50;7.90;99.90
23445;DHT22;11895;48.738;9.320;2022-10-03T22:55:19;7.90;99.90
23445;DHT22;11895;48.738;9.320;2022-10-03T22:57:50;7.80;99.90
23445;DHT22;11895;48.738;9.320;2022-10-03T23:00:24;7.90;99.90
23445;DHT22;11895;48.738;9.320;2022-10-03T23:02:57;7.90;99.90
23445;DHT22;11895;48.738;9.320;2022-10-03T23:11:50;7.90;99.90
23445;DHT22;11895;48.738;9.320;2022-10-03T23:14:21;7.90;99.90
23445;DHT22;11895;48.738;9.320;2022-10-03T23:16:59;7.80;99.90
23445;DHT22;11895;48.738;9.320;2022-10-03T23:19:50;7.80;99.90
23445;DHT22;11895;48.738;9.320;2022-10-03T23:22:36;7.70;99.90
23445;DHT22;11895;48.738;9.320;2022-10-03T23:25:16;7.70;99.90
23445;DHT22;11895;48.738;9.320;2022-10-03T23:30:43;7.60;99.90
23445;DHT22;11895;48.738;9.320;2022-10-03T23:33:14;7.50;99.90
23445;DHT22;11895;48.738;9.320;2022-10-03T23:41:40;7.40;99.90
23445;DHT22;11895;48.738;9.320;2022-10-03T23:44:23;7.40;99.90
23445;DHT22;11895;48.738;9.320;2022-10-03T23:46:55;7.40;99.90
23445;DHT22;11895;48.738;9.320;2022-10-03T23:49:25;7.40;99.90
23445;DHT22;11895;48.738;9.320;2022-10-03T23:51:52;7.40;99.90
23445;DHT22;11895;48.738;9.320;2022-10-03T23:54:20;7.30;99.90
23445;DHT22;11895;48.738;9.320;2022-10-03T23:56:48;7.30;99.90
23445;DHT22;11895;48.738;9.320;2022-10-03T23:59:18;7.30;99.90
